createdAt,value
2023-03-04T00:00:00.275Z,15.57
2023-03-04T00:02:27.502Z,13.43
2023-03-04T00:04:54.774Z,7.22
2023-03-04T00:07:22.055Z,13.40
2023-03-04T00:09:49.258Z,11.00
2023-03-04T00:12:16.470Z,11.57
2023-03-04T00:14:43.743Z,10.90
2023-03-04T00:17:11.110Z,14.65
2023-03-04T00:19:38.472Z,15.43
2023-03-04T00:22:05.855Z,14.35
2023-03-04T00:24:33.244Z,14.48
2023-03-04T00:27:00.564Z,10.95
2023-03-04T00:29:27.858Z,7.13
2023-03-04T00:31:55.689Z,8.23
2023-03-04T00:34:23.073Z,7.65
2023-03-04T00:36:50.397Z,8.57
2023-03-04T00:39:17.994Z,11.32
2023-03-04T00:41:45.343Z,12.18
2023-03-04T00:44:13.000Z,10.02
2023-03-04T00:46:40.275Z,6.90
2023-03-04T00:49:07.534Z,8.93
2023-03-04T00:51:35.119Z,9.43
2023-03-04T00:54:02.353Z,8.82
2023-03-04T00:56:29.909Z,11.48
2023-03-04T00:58:57.304Z,17.08
2023-03-04T01:01:24.611Z,14.18
2023-03-04T01:03:52.024Z,11.27
2023-03-04T01:06:19.346Z,14.45
2023-03-04T01:08:46.609Z,15.88
2023-03-04T01:11:14.192Z,15.65
2023-03-04T01:13:41.400Z,9.75
2023-03-04T01:16:11.006Z,7.95
2023-03-04T01:18:38.334Z,17.35
2023-03-04T01:21:05.744Z,11.05
2023-03-04T01:23:33.240Z,12.77
2023-03-04T01:26:02.253Z,16.17
2023-03-04T01:28:29.528Z,7.82
2023-03-04T01:30:56.820Z,18.90
2023-03-04T01:33:24.373Z,18.30
2023-03-04T01:35:51.682Z,11.38
2023-03-04T01:38:19.006Z,10.60
2023-03-04T01:40:46.315Z,16.00
2023-03-04T01:43:17.144Z,10.70
2023-03-04T01:45:44.378Z,9.25
2023-03-04T01:48:13.093Z,13.60
2023-03-04T01:50:40.465Z,15.98
2023-03-04T01:53:07.926Z,17.15
2023-03-04T01:55:35.148Z,14.05
2023-03-04T01:58:02.700Z,13.10
2023-03-04T02:00:37.284Z,9.88
2023-03-04T02:03:07.855Z,14.13
2023-03-04T02:05:36.122Z,13.18
2023-03-04T02:08:04.187Z,12.13
2023-03-04T02:10:31.998Z,11.10
2023-03-04T02:13:00.111Z,12.90
2023-03-04T02:15:27.514Z,9.13
2023-03-04T02:17:54.831Z,14.93
2023-03-04T02:20:31.263Z,10.30
2023-03-04T02:23:02.450Z,9.63
2023-03-04T02:25:34.080Z,13.35
2023-03-04T02:28:01.447Z,11.15
2023-03-04T02:30:28.741Z,13.27
2023-03-04T02:32:56.043Z,11.48
2023-03-04T02:35:23.671Z,9.02
2023-03-04T02:37:50.940Z,14.25
2023-03-04T02:40:22.592Z,11.75
2023-03-04T02:42:49.901Z,10.95
2023-03-04T02:45:36.207Z,13.60
2023-03-04T02:48:06.498Z,11.18
2023-03-04T02:50:38.861Z,11.77
2023-03-04T02:53:06.315Z,16.67
2023-03-04T02:55:34.063Z,8.00
2023-03-04T02:58:01.724Z,13.45
2023-03-04T03:00:29.377Z,13.15
2023-03-04T03:02:57.224Z,11.00
2023-03-04T03:05:26.297Z,9.38
2023-03-04T03:07:54.924Z,10.80
2023-03-04T03:10:22.364Z,13.48
2023-03-04T03:12:49.778Z,11.30
2023-03-04T03:15:17.024Z,9.27
2023-03-04T03:17:44.258Z,11.77
2023-03-04T03:20:12.889Z,10.05
2023-03-04T03:22:40.945Z,11.60
2023-03-04T03:25:10.201Z,8.10
2023-03-04T03:27:37.434Z,11.27
2023-03-04T03:30:05.304Z,10.77
2023-03-04T03:32:32.874Z,8.77
2023-03-04T03:35:00.265Z,5.50
2023-03-04T03:37:27.513Z,10.70
2023-03-04T03:39:54.792Z,5.88
2023-03-04T03:42:22.064Z,11.40
2023-03-04T03:44:50.241Z,8.52
2023-03-04T03:47:17.582Z,7.95
2023-03-04T03:49:44.834Z,6.13
2023-03-04T03:52:12.401Z,12.77
2023-03-04T03:54:39.729Z,6.10
2023-03-04T03:57:07.244Z,8.85
2023-03-04T03:59:34.495Z,8.40
2023-03-04T04:02:01.862Z,9.50
2023-03-04T04:04:29.122Z,13.00
2023-03-04T04:06:56.418Z,5.55
2023-03-04T04:09:23.686Z,9.30
2023-03-04T04:11:50.918Z,7.88
2023-03-04T04:14:18.175Z,12.15
2023-03-04T04:16:45.457Z,9.43
2023-03-04T04:19:17.211Z,6.78
2023-03-04T04:21:44.471Z,10.52
2023-03-04T04:24:11.677Z,7.95
2023-03-04T04:26:38.968Z,9.90
2023-03-04T04:29:06.236Z,12.18
2023-03-04T04:31:33.569Z,7.65
2023-03-04T04:34:00.841Z,9.85
2023-03-04T04:36:28.218Z,7.97
2023-03-04T04:38:55.410Z,11.88
2023-03-04T04:41:24.188Z,11.27
2023-03-04T04:43:51.844Z,8.82
2023-03-04T04:46:19.440Z,10.63
2023-03-04T04:48:46.755Z,10.80
2023-03-04T04:51:13.980Z,6.80
2023-03-04T04:53:41.313Z,10.52
2023-03-04T04:56:12.565Z,8.63
2023-03-04T04:58:40.176Z,8.50
2023-03-04T05:01:07.537Z,11.32
2023-03-04T05:03:35.712Z,10.88
2023-03-04T05:06:03.263Z,14.32
2023-03-04T05:08:30.611Z,10.32
2023-03-04T05:10:57.816Z,9.43
2023-03-04T05:13:25.192Z,6.75
2023-03-04T05:15:53.582Z,5.97
2023-03-04T05:18:21.687Z,10.60
2023-03-04T05:20:55.337Z,6.70
2023-03-04T05:23:22.620Z,7.22
2023-03-04T05:25:49.858Z,6.20
2023-03-04T05:28:17.390Z,8.70
2023-03-04T05:30:45.326Z,8.93
2023-03-04T05:33:13.378Z,5.13
2023-03-04T05:35:41.494Z,9.68
2023-03-04T05:38:10.116Z,9.05
2023-03-04T05:40:37.581Z,8.77
2023-03-04T05:43:04.817Z,10.13
2023-03-04T05:45:32.097Z,10.93
2023-03-04T05:47:59.372Z,12.05
2023-03-04T05:50:26.628Z,6.50
2023-03-04T05:52:53.988Z,8.77
2023-03-04T05:55:21.377Z,8.20
2023-03-04T05:57:48.614Z,5.25
2023-03-04T06:00:17.707Z,9.95
2023-03-04T06:02:45.391Z,11.93
2023-03-04T06:05:14.104Z,8.70
2023-03-04T06:07:43.159Z,6.95
2023-03-04T06:10:11.022Z,12.40
2023-03-04T06:12:38.285Z,8.25
2023-03-04T06:15:06.148Z,7.40
2023-03-04T06:17:33.636Z,10.45
2023-03-04T06:20:00.862Z,6.97
2023-03-04T06:22:28.104Z,11.00
2023-03-04T06:24:55.338Z,8.93
2023-03-04T06:27:22.583Z,10.20
2023-03-04T06:29:49.780Z,4.53
2023-03-04T06:32:17.131Z,8.35
2023-03-04T06:34:44.364Z,6.57
2023-03-04T06:37:11.629Z,11.90
2023-03-04T06:39:39.025Z,6.50
2023-03-04T06:42:06.254Z,6.80
2023-03-04T06:44:33.472Z,11.20
2023-03-04T06:47:00.896Z,8.30
2023-03-04T06:49:28.176Z,11.50
2023-03-04T06:51:55.358Z,5.97
2023-03-04T06:54:22.643Z,3.72
2023-03-04T06:56:49.987Z,7.97
2023-03-04T06:59:17.322Z,8.27
2023-03-04T07:01:44.585Z,5.60
2023-03-04T07:04:14.354Z,9.20
2023-03-04T07:06:41.588Z,3.70
2023-03-04T07:09:08.933Z,5.82
2023-03-04T07:11:36.131Z,3.75
2023-03-04T07:14:03.446Z,8.02
2023-03-04T07:16:30.761Z,8.23
2023-03-04T07:18:58.083Z,3.80
2023-03-04T07:21:25.508Z,5.35
2023-03-04T07:23:52.733Z,2.40
2023-03-04T07:26:20.421Z,4.00
2023-03-04T07:28:47.743Z,4.18
2023-03-04T07:31:44.514Z,7.30
2023-03-04T07:34:13.690Z,5.15
2023-03-04T07:36:41.235Z,3.45
2023-03-04T07:39:08.901Z,4.65
2023-03-04T07:41:37.293Z,3.85
2023-03-04T07:44:05.291Z,7.40
2023-03-04T07:46:32.631Z,2.97
2023-03-04T07:48:59.863Z,5.20
2023-03-04T07:51:27.855Z,3.92
2023-03-04T07:53:57.550Z,2.35
2023-03-04T07:56:26.423Z,4.70
2023-03-04T07:58:53.783Z,3.92
2023-03-04T08:01:22.558Z,2.40
2023-03-04T08:03:50.004Z,3.92
2023-03-04T08:06:17.980Z,3.13
2023-03-04T08:08:45.172Z,2.88
2023-03-04T08:11:14.004Z,3.42
2023-03-04T08:13:41.269Z,3.65
2023-03-04T08:16:08.805Z,10.10
2023-03-04T08:18:36.127Z,5.28
2023-03-04T08:21:03.423Z,3.83
2023-03-04T08:23:30.705Z,4.57
2023-03-04T08:25:57.949Z,6.28
2023-03-04T08:28:25.165Z,4.47
2023-03-04T08:30:56.604Z,4.00
2023-03-04T08:33:23.945Z,3.30
2023-03-04T08:35:51.171Z,7.60
2023-03-04T08:38:18.385Z,5.07
2023-03-04T08:40:45.585Z,5.93
2023-03-04T08:43:12.865Z,7.22
2023-03-04T08:45:40.122Z,3.28
2023-03-04T08:48:07.449Z,2.58
2023-03-04T08:50:34.664Z,4.88
2023-03-04T08:53:01.887Z,3.95
2023-03-04T08:55:29.169Z,5.50
2023-03-04T08:57:56.492Z,8.50
2023-03-04T09:00:23.896Z,6.38
2023-03-04T09:02:51.148Z,5.25
2023-03-04T09:05:18.492Z,5.43
2023-03-04T09:07:45.681Z,4.40
2023-03-04T09:10:12.941Z,6.05
2023-03-04T09:12:40.197Z,8.98
2023-03-04T09:15:11.658Z,8.23
2023-03-04T09:17:39.917Z,11.00
2023-03-04T09:20:10.297Z,11.32
2023-03-04T09:22:40.792Z,7.95
2023-03-04T09:25:12.180Z,13.63
2023-03-04T09:27:40.504Z,7.72
2023-03-04T09:30:08.555Z,6.13
2023-03-04T09:32:35.830Z,3.85
2023-03-04T09:35:03.075Z,5.75
2023-03-04T09:37:30.454Z,7.53
2023-03-04T09:39:57.645Z,5.57
2023-03-04T09:42:30.952Z,4.13
2023-03-04T09:44:58.782Z,2.10
2023-03-04T09:47:26.855Z,1.35
2023-03-04T09:49:58.307Z,4.43
2023-03-04T09:52:34.585Z,2.85
2023-03-04T09:55:05.598Z,1.83
2023-03-04T09:57:51.822Z,1.85
2023-03-04T10:00:25.327Z,6.00
2023-03-04T10:03:07.247Z,6.03
2023-03-04T10:05:37.032Z,4.10
2023-03-04T10:08:30.426Z,3.67
2023-03-04T10:10:59.577Z,4.22
2023-03-04T10:13:32.252Z,3.03
2023-03-04T10:16:00.934Z,5.03
2023-03-04T10:18:30.447Z,2.10
2023-03-04T10:21:02.106Z,5.90
2023-03-04T10:23:30.006Z,3.95
2023-03-04T10:25:57.307Z,6.88
2023-03-04T10:28:26.621Z,5.97
2023-03-04T10:33:22.096Z,4.53
2023-03-04T10:35:51.608Z,5.33
2023-03-04T10:38:20.757Z,2.08
2023-03-04T10:40:47.997Z,9.95
2023-03-04T10:43:22.423Z,3.63
2023-03-04T10:45:50.649Z,4.22
2023-03-04T10:48:23.346Z,4.05
2023-03-04T10:50:50.585Z,4.10
2023-03-04T10:53:44.278Z,6.05
2023-03-04T10:56:30.154Z,6.22
2023-03-04T10:59:17.376Z,7.97
2023-03-04T11:01:44.655Z,2.33
2023-03-04T11:04:19.067Z,2.72
2023-03-04T11:06:46.377Z,4.05
2023-03-04T11:09:24.766Z,3.85
2023-03-04T11:11:53.277Z,6.83
2023-03-04T11:14:23.865Z,3.22
2023-03-04T11:16:58.980Z,6.43
2023-03-04T11:19:30.178Z,4.80
2023-03-04T11:21:57.933Z,2.47
2023-03-04T11:24:32.218Z,3.13
2023-03-04T11:27:19.733Z,4.43
2023-03-04T11:29:53.042Z,3.67
2023-03-04T11:32:26.673Z,5.75
2023-03-04T11:34:57.704Z,4.60
2023-03-04T11:37:35.649Z,4.13
2023-03-04T11:40:05.261Z,4.03
2023-03-04T11:42:36.115Z,1.83
2023-03-04T11:45:03.787Z,4.03
2023-03-04T11:47:49.826Z,2.60
2023-03-04T11:50:17.003Z,5.88
2023-03-04T11:53:03.235Z,1.98
2023-03-04T11:55:30.453Z,2.10
2023-03-04T11:58:15.881Z,2.22
2023-03-04T12:01:01.770Z,2.13
2023-03-04T12:03:45.511Z,3.10
2023-03-04T12:06:18.481Z,4.10
2023-03-04T12:08:55.001Z,4.45
2023-03-04T12:11:22.268Z,3.72
2023-03-04T12:13:57.721Z,4.07
2023-03-04T12:16:50.780Z,4.65
2023-03-04T12:19:18.359Z,6.78
2023-03-04T12:22:06.392Z,6.63
2023-03-04T12:24:33.624Z,6.00
2023-03-04T12:27:16.924Z,5.68
2023-03-04T12:29:51.610Z,7.25
2023-03-04T12:32:24.323Z,8.68
2023-03-04T12:35:09.072Z,7.28
2023-03-04T12:37:44.748Z,9.23
2023-03-04T12:40:24.584Z,5.53
2023-03-04T12:42:59.092Z,5.13
2023-03-04T12:45:29.283Z,6.30
2023-03-04T12:47:59.481Z,5.68
2023-03-04T12:50:48.837Z,7.80
2023-03-04T12:53:21.605Z,5.90
2023-03-04T12:55:51.217Z,9.40
2023-03-04T12:58:29.379Z,10.75
2023-03-04T13:01:16.966Z,12.50
2023-03-04T13:03:47.435Z,6.10
2023-03-04T13:06:33.466Z,7.43
2023-03-04T13:09:00.729Z,9.95
2023-03-04T13:11:31.740Z,7.53
2023-03-04T13:14:19.038Z,6.82
2023-03-04T13:16:47.513Z,6.22
2023-03-04T13:19:33.519Z,10.60
2023-03-04T13:22:00.877Z,8.68
2023-03-04T13:24:50.915Z,11.80
2023-03-04T13:27:56.677Z,9.38
2023-03-04T13:30:33.483Z,15.02
2023-03-04T13:33:10.713Z,6.20
2023-03-04T13:35:50.296Z,7.88
2023-03-04T13:38:25.446Z,9.95
2023-03-04T13:41:11.249Z,6.22
2023-03-04T13:43:39.821Z,14.75
2023-03-04T13:46:19.494Z,11.02
2023-03-04T13:48:53.095Z,6.30
2023-03-04T13:51:29.255Z,7.55
2023-03-04T13:54:00.665Z,9.18
2023-03-04T13:56:28.944Z,9.98
2023-03-04T13:59:05.470Z,7.15
2023-03-04T14:01:33.487Z,7.25
2023-03-04T14:04:01.321Z,9.75
2023-03-04T14:06:29.906Z,7.82
2023-03-04T14:08:58.150Z,7.13
2023-03-04T14:11:28.371Z,5.53
2023-03-04T14:13:56.587Z,5.05
2023-03-04T14:16:26.870Z,6.22
2023-03-04T14:18:58.225Z,5.15
2023-03-04T14:21:25.646Z,13.73
2023-03-04T14:24:06.929Z,7.72
2023-03-04T14:26:34.655Z,6.32
2023-03-04T14:29:03.001Z,9.45
2023-03-04T14:31:31.484Z,6.23
2023-03-04T14:34:02.104Z,10.50
2023-03-04T14:36:36.614Z,8.32
2023-03-04T14:39:06.321Z,8.38
2023-03-04T14:41:38.408Z,10.00
2023-03-04T14:44:05.762Z,7.90
2023-03-04T14:46:36.216Z,9.57
2023-03-04T14:49:04.407Z,7.63
2023-03-04T14:51:33.885Z,6.13
2023-03-04T14:54:01.250Z,10.35
2023-03-04T14:56:34.147Z,5.53
2023-03-04T14:59:01.500Z,8.27
2023-03-04T15:01:38.893Z,4.93
2023-03-04T15:04:12.805Z,6.47
2023-03-04T15:06:51.397Z,9.35
2023-03-04T15:09:23.042Z,6.22
2023-03-04T15:11:55.845Z,7.35
2023-03-04T15:14:42.568Z,9.68
2023-03-04T15:17:28.538Z,10.35
2023-03-04T15:20:03.248Z,11.15
2023-03-04T15:22:30.573Z,7.60
2023-03-04T15:24:57.835Z,9.77
2023-03-04T15:27:25.934Z,7.85
2023-03-04T15:29:59.124Z,5.32
2023-03-04T15:32:27.138Z,5.60
2023-03-04T15:34:54.465Z,1.85
2023-03-04T15:37:24.185Z,7.20
2023-03-04T15:39:52.068Z,3.63
2023-03-04T15:42:19.700Z,3.20
2023-03-04T15:44:47.640Z,7.13
2023-03-04T15:47:15.018Z,4.10
2023-03-04T15:49:43.228Z,6.60
2023-03-04T15:52:19.116Z,3.30
2023-03-04T15:54:47.165Z,2.60
2023-03-04T15:57:21.225Z,3.80
2023-03-04T15:59:48.632Z,4.15
2023-03-04T16:02:34.425Z,4.25
2023-03-04T16:05:02.347Z,7.30
2023-03-04T16:07:30.719Z,3.03
2023-03-04T16:10:02.171Z,4.07
2023-03-04T16:12:29.733Z,7.07
2023-03-04T16:14:57.088Z,5.07
2023-03-04T16:17:24.466Z,6.38
2023-03-04T16:19:51.753Z,5.35
2023-03-04T16:22:24.141Z,5.20
2023-03-04T16:24:52.038Z,4.05
2023-03-04T16:27:21.084Z,3.72
2023-03-04T16:29:48.595Z,3.30
2023-03-04T16:32:16.067Z,3.72
2023-03-04T16:34:43.329Z,2.70
2023-03-04T16:37:15.664Z,3.28
2023-03-04T16:39:46.062Z,2.05
2023-03-04T16:42:15.879Z,1.80
2023-03-04T16:44:43.619Z,2.45
2023-03-04T16:47:10.835Z,4.03
2023-03-04T16:49:38.279Z,4.25
2023-03-04T16:52:06.559Z,2.47
2023-03-04T16:54:35.449Z,2.67
2023-03-04T16:57:02.744Z,2.83
2023-03-04T16:59:30.249Z,5.57
2023-03-04T17:01:57.592Z,3.67
2023-03-04T17:04:25.324Z,5.40
2023-03-04T17:06:52.629Z,8.18
2023-03-04T17:09:19.873Z,9.43
2023-03-04T17:11:47.251Z,9.20
2023-03-04T17:14:14.549Z,15.18
2023-03-04T17:16:41.861Z,7.82
2023-03-04T17:19:09.168Z,6.25
2023-03-04T17:21:36.468Z,10.13
2023-03-04T17:24:03.814Z,9.32
2023-03-04T17:26:31.735Z,9.52
2023-03-04T17:28:59.000Z,15.82
2023-03-04T17:31:26.361Z,37.22
2023-03-04T17:33:53.679Z,11.00
2023-03-04T17:36:21.747Z,35.72
2023-03-04T17:38:49.581Z,27.27
2023-03-04T17:41:18.746Z,10.00
2023-03-04T17:43:47.676Z,9.10
2023-03-04T17:46:15.770Z,10.13
2023-03-04T17:48:43.100Z,6.75
2023-03-04T17:51:10.621Z,11.77
2023-03-04T17:53:38.477Z,8.73
2023-03-04T17:56:06.521Z,7.68
2023-03-04T17:58:35.301Z,14.07
2023-03-04T18:01:07.217Z,9.88
2023-03-04T18:03:34.489Z,9.05
2023-03-04T18:06:01.782Z,7.20
2023-03-04T18:08:29.126Z,13.18
2023-03-04T18:10:56.406Z,9.07
2023-03-04T18:13:23.681Z,9.48
2023-03-04T18:15:51.001Z,11.13
2023-03-04T18:18:18.253Z,9.07
2023-03-04T18:20:45.494Z,9.85
2023-03-04T18:23:12.748Z,7.28
2023-03-04T18:25:40.215Z,11.07
2023-03-04T18:28:07.653Z,9.05
2023-03-04T18:30:34.948Z,9.65
2023-03-04T18:33:02.769Z,10.35
2023-03-04T18:35:30.191Z,9.32
2023-03-04T18:37:57.574Z,9.85
2023-03-04T18:40:24.842Z,10.23
2023-03-04T18:42:52.268Z,12.02
2023-03-04T18:45:21.441Z,13.48
2023-03-04T18:47:51.249Z,9.75
2023-03-04T18:50:18.792Z,9.80
2023-03-04T18:52:46.126Z,8.90
2023-03-04T18:55:13.659Z,11.13
2023-03-04T18:57:43.343Z,7.38
2023-03-04T19:00:11.447Z,8.68
2023-03-04T19:02:54.275Z,7.60
2023-03-04T19:05:27.605Z,5.57
2023-03-04T19:07:55.256Z,7.10
2023-03-04T19:10:23.637Z,8.63
2023-03-04T19:12:50.884Z,4.10
2023-03-04T19:15:18.358Z,5.63
2023-03-04T19:17:46.164Z,6.25
2023-03-04T19:20:14.260Z,7.45
2023-03-04T19:22:41.587Z,9.27
2023-03-04T19:25:09.278Z,5.72
2023-03-04T19:27:36.719Z,8.80
2023-03-04T19:30:04.531Z,7.32
2023-03-04T19:32:31.985Z,10.27
2023-03-04T19:34:59.360Z,6.63
2023-03-04T19:37:26.682Z,8.77
2023-03-04T19:39:55.873Z,10.00
2023-03-04T19:42:23.998Z,11.00
2023-03-04T19:44:51.499Z,8.90
2023-03-04T19:47:18.822Z,9.20
2023-03-04T19:49:46.141Z,8.40
2023-03-04T19:52:13.479Z,11.80
2023-03-04T19:54:40.777Z,7.80
2023-03-04T19:57:08.086Z,7.78
2023-03-04T19:59:35.956Z,10.00
2023-03-04T20:02:03.476Z,10.70
2023-03-04T20:04:30.807Z,10.77
2023-03-04T20:06:58.101Z,20.42
2023-03-04T20:09:25.392Z,12.82
2023-03-04T20:11:58.869Z,20.67
2023-03-04T20:14:27.685Z,9.27
2023-03-04T20:16:55.183Z,7.57
2023-03-04T20:19:22.470Z,12.13
2023-03-04T20:21:49.751Z,12.82
2023-03-04T20:24:18.993Z,14.35
2023-03-04T20:26:46.924Z,10.25
2023-03-04T20:29:14.203Z,14.43
2023-03-04T20:31:41.688Z,10.13
2023-03-04T20:34:09.271Z,17.70
2023-03-04T20:36:38.488Z,13.52
2023-03-04T20:39:15.426Z,12.60
2023-03-04T20:41:52.982Z,10.98
2023-03-04T20:44:20.195Z,10.65
2023-03-04T20:46:47.489Z,17.38
2023-03-04T20:49:23.517Z,14.57
2023-03-04T20:51:54.911Z,10.50
2023-03-04T20:54:22.163Z,9.95
2023-03-04T20:56:49.524Z,11.02
2023-03-04T20:59:17.265Z,13.07
2023-03-04T21:01:45.529Z,14.23
2023-03-04T21:04:12.935Z,6.63
2023-03-04T21:06:40.585Z,10.52
2023-03-04T21:09:09.687Z,8.65
2023-03-04T21:11:40.926Z,9.88
2023-03-04T21:14:09.079Z,11.35
2023-03-04T21:16:36.393Z,13.65
2023-03-04T21:19:03.695Z,10.10
2023-03-04T21:21:31.230Z,14.38
2023-03-04T21:23:59.256Z,13.45
2023-03-04T21:26:26.966Z,14.45
2023-03-04T21:28:54.827Z,15.45
2023-03-04T21:31:24.384Z,16.60
2023-03-04T21:33:52.710Z,17.95
2023-03-04T21:36:19.936Z,17.27
2023-03-04T21:38:47.421Z,15.95
2023-03-04T21:41:18.967Z,14.18
2023-03-04T21:43:46.626Z,14.10
2023-03-04T21:46:14.903Z,11.98
2023-03-04T21:48:43.275Z,14.82
2023-03-04T21:51:12.191Z,17.33
2023-03-04T21:53:39.837Z,13.93
2023-03-04T21:56:07.358Z,12.27
2023-03-04T21:58:35.462Z,12.68
2023-03-04T22:01:09.888Z,10.25
2023-03-04T22:03:37.260Z,12.27
2023-03-04T22:06:05.795Z,15.52
2023-03-04T22:08:33.056Z,10.75
2023-03-04T22:11:03.212Z,12.57
2023-03-04T22:13:30.625Z,11.70
2023-03-04T22:15:58.402Z,13.00
2023-03-04T22:18:26.329Z,10.90
2023-03-04T22:20:59.832Z,11.15
2023-03-04T22:23:27.080Z,9.50
2023-03-04T22:25:55.602Z,7.63
2023-03-04T22:28:25.128Z,12.05
2023-03-04T22:30:52.692Z,9.30
2023-03-04T22:33:19.965Z,16.75
2023-03-04T22:35:47.319Z,11.10
2023-03-04T22:38:14.858Z,9.25
2023-03-04T22:40:42.133Z,12.60
2023-03-04T22:43:09.358Z,8.68
2023-03-04T22:45:36.637Z,8.80
2023-03-04T22:48:04.017Z,10.18
2023-03-04T22:50:31.288Z,14.68
2023-03-04T22:52:58.662Z,13.40
2023-03-04T22:55:25.946Z,15.98
2023-03-04T22:57:53.256Z,11.77
2023-03-04T23:00:24.862Z,7.55
2023-03-04T23:02:53.529Z,9.85
2023-03-04T23:05:20.994Z,10.80
2023-03-04T23:07:50.967Z,8.07
2023-03-04T23:10:21.142Z,8.43
2023-03-04T23:12:48.880Z,12.98
2023-03-04T23:15:17.207Z,14.95
2023-03-04T23:17:45.081Z,10.52
2023-03-04T23:20:14.031Z,9.75
2023-03-04T23:22:41.447Z,8.65
2023-03-04T23:25:08.986Z,10.43
2023-03-04T23:27:37.353Z,9.18
2023-03-04T23:30:06.010Z,9.15
2023-03-04T23:32:33.390Z,9.52
2023-03-04T23:35:00.738Z,8.38
2023-03-04T23:37:28.038Z,10.60
2023-03-04T23:39:55.311Z,11.88
2023-03-04T23:42:22.545Z,10.15
2023-03-04T23:44:49.777Z,9.70
2023-03-04T23:47:17.070Z,9.93
2023-03-04T23:49:44.289Z,7.63
2023-03-04T23:52:11.518Z,8.88
2023-03-04T23:54:38.763Z,11.00
2023-03-04T23:57:05.994Z,8.10
2023-03-04T23:59:33.200Z,11.70
